sensor_id;sensor_type;location;lat;lon;timestamp;P1;durP1;ratioP1;P2;durP2;ratioP2
20283;SDS011;10301;50.832;4.080;2022-10-16T00:01:15;3.83;;;1.42;;
20283;SDS011;10301;50.832;4.080;2022-10-16T00:03:42;3.47;;;1.23;;
20283;SDS011;10301;50.832;4.080;2022-10-16T00:06:09;3.75;;;1.50;;
20283;SDS011;10301;50.832;4.080;2022-10-16T00:08:36;4.45;;;1.55;;
20283;SDS011;10301;50.832;4.080;2022-10-16T00:11:06;5.15;;;1.60;;
20283;SDS011;10301;50.832;4.080;2022-10-16T00:13:40;3.90;;;1.50;;
20283;SDS011;10301;50.832;4.080;2022-10-16T00:16:07;3.53;;;1.30;;
20283;SDS011;10301;50.832;4.080;2022-10-16T00:18:34;3.83;;;1.40;;
20283;SDS011;10301;50.832;4.080;2022-10-16T00:21:07;3.28;;;1.33;;
20283;SDS011;10301;50.832;4.080;2022-10-16T00:23:34;4.78;;;1.10;;
20283;SDS011;10301;50.832;4.080;2022-10-16T00:26:02;3.10;;;1.30;;
20283;SDS011;10301;50.832;4.080;2022-10-16T00:28:29;4.30;;;1.50;;
20283;SDS011;10301;50.832;4.080;2022-10-16T00:30:55;3.70;;;1.00;;
20283;SDS011;10301;50.832;4.080;2022-10-16T00:33:21;3.20;;;1.30;;
20283;SDS011;10301;50.832;4.080;2022-10-16T00:35:47;5.60;;;1.30;;
20283;SDS011;10301;50.832;4.080;2022-10-16T00:38:14;5.07;;;1.40;;
20283;SDS011;10301;50.832;4.080;2022-10-16T00:40:40;6.70;;;1.48;;
20283;SDS011;10301;50.832;4.080;2022-10-16T00:43:12;3.03;;;1.02;;
20283;SDS011;10301;50.832;4.080;2022-10-16T00:45:58;3.10;;;1.10;;
20283;SDS011;10301;50.832;4.080;2022-10-16T00:48:24;4.03;;;1.35;;
20283;SDS011;10301;50.832;4.080;2022-10-16T00:50:50;2.55;;;1.05;;
20283;SDS011;10301;50.832;4.080;2022-10-16T00:53:16;5.07;;;1.30;;
20283;SDS011;10301;50.832;4.080;2022-10-16T00:55:42;4.85;;;1.42;;
20283;SDS011;10301;50.832;4.080;2022-10-16T00:58:08;3.47;;;1.48;;
20283;SDS011;10301;50.832;4.080;2022-10-16T01:00:34;8.18;;;1.40;;
20283;SDS011;10301;50.832;4.080;2022-10-16T01:03:01;4.93;;;1.63;;
20283;SDS011;10301;50.832;4.080;2022-10-16T01:05:33;5.00;;;1.65;;
20283;SDS011;10301;50.832;4.080;2022-10-16T01:08:19;4.72;;;1.38;;
20283;SDS011;10301;50.832;4.080;2022-10-16T01:10:57;4.15;;;1.40;;
20283;SDS011;10301;50.832;4.080;2022-10-16T01:13:32;3.97;;;1.65;;
20283;SDS011;10301;50.832;4.080;2022-10-16T01:18:38;5.03;;;1.60;;
20283;SDS011;10301;50.832;4.080;2022-10-16T01:21:10;5.95;;;1.27;;
20283;SDS011;10301;50.832;4.080;2022-10-16T01:27:02;6.38;;;1.80;;
20283;SDS011;10301;50.832;4.080;2022-10-16T01:34:59;4.10;;;1.90;;
20283;SDS011;10301;50.832;4.080;2022-10-16T01:40:05;4.93;;;2.10;;
20283;SDS011;10301;50.832;4.080;2022-10-16T01:42:37;5.40;;;1.85;;
20283;SDS011;10301;50.832;4.080;2022-10-16T01:45:06;4.70;;;1.75;;
20283;SDS011;10301;50.832;4.080;2022-10-16T01:47:36;6.30;;;1.85;;
20283;SDS011;10301;50.832;4.080;2022-10-16T01:50:03;4.43;;;1.70;;
20283;SDS011;10301;50.832;4.080;2022-10-16T01:52:30;7.43;;;1.85;;
20283;SDS011;10301;50.832;4.080;2022-10-16T01:54:59;6.07;;;2.00;;
20283;SDS011;10301;50.832;4.080;2022-10-16T01:57:28;4.93;;;1.77;;
20283;SDS011;10301;50.832;4.080;2022-10-16T01:59:56;4.72;;;1.90;;
20283;SDS011;10301;50.832;4.080;2022-10-16T02:02:26;6.88;;;1.70;;
20283;SDS011;10301;50.832;4.080;2022-10-16T02:05:00;4.35;;;1.77;;
20283;SDS011;10301;50.832;4.080;2022-10-16T02:07:30;5.45;;;1.65;;
20283;SDS011;10301;50.832;4.080;2022-10-16T02:09:55;4.63;;;1.73;;
20283;SDS011;10301;50.832;4.080;2022-10-16T02:12:31;5.03;;;1.95;;
20283;SDS011;10301;50.832;4.080;2022-10-16T02:15:00;4.88;;;2.10;;
20283;SDS011;10301;50.832;4.080;2022-10-16T02:17:26;5.18;;;1.98;;
20283;SDS011;10301;50.832;4.080;2022-10-16T02:19:52;4.10;;;1.83;;
20283;SDS011;10301;50.832;4.080;2022-10-16T02:25:05;4.43;;;2.30;;
20283;SDS011;10301;50.832;4.080;2022-10-16T02:33:14;4.68;;;1.92;;
20283;SDS011;10301;50.832;4.080;2022-10-16T02:35:41;5.85;;;1.98;;
20283;SDS011;10301;50.832;4.080;2022-10-16T02:38:10;5.43;;;2.30;;
20283;SDS011;10301;50.832;4.080;2022-10-16T02:40:37;5.00;;;2.13;;
20283;SDS011;10301;50.832;4.080;2022-10-16T02:43:04;6.82;;;2.50;;
20283;SDS011;10301;50.832;4.080;2022-10-16T02:45:30;7.30;;;2.38;;
20283;SDS011;10301;50.832;4.080;2022-10-16T02:47:56;4.03;;;2.03;;
20283;SDS011;10301;50.832;4.080;2022-10-16T02:50:22;4.65;;;2.10;;
20283;SDS011;10301;50.832;4.080;2022-10-16T02:52:49;10.32;;;2.67;;
20283;SDS011;10301;50.832;4.080;2022-10-16T02:55:14;4.15;;;2.10;;
20283;SDS011;10301;50.832;4.080;2022-10-16T02:57:40;6.97;;;2.25;;
20283;SDS011;10301;50.832;4.080;2022-10-16T03:00:06;6.35;;;2.13;;
20283;SDS011;10301;50.832;4.080;2022-10-16T03:02:34;5.30;;;2.13;;
20283;SDS011;10301;50.832;4.080;2022-10-16T03:05:00;6.53;;;2.20;;
20283;SDS011;10301;50.832;4.080;2022-10-16T03:07:25;10.32;;;2.75;;
20283;SDS011;10301;50.832;4.080;2022-10-16T03:09:51;7.53;;;2.13;;
20283;SDS011;10301;50.832;4.080;2022-10-16T03:12:17;4.88;;;2.30;;
20283;SDS011;10301;50.832;4.080;2022-10-16T03:14:42;6.80;;;2.05;;
20283;SDS011;10301;50.832;4.080;2022-10-16T03:17:08;4.70;;;2.28;;
20283;SDS011;10301;50.832;4.080;2022-10-16T03:19:33;8.63;;;2.30;;
20283;SDS011;10301;50.832;4.080;2022-10-16T03:22:00;5.70;;;2.05;;
20283;SDS011;10301;50.832;4.080;2022-10-16T03:24:26;7.55;;;2.47;;
20283;SDS011;10301;50.832;4.080;2022-10-16T03:26:52;6.00;;;2.13;;
20283;SDS011;10301;50.832;4.080;2022-10-16T03:29:18;6.68;;;2.15;;
20283;SDS011;10301;50.832;4.080;2022-10-16T03:31:43;4.82;;;2.25;;
20283;SDS011;10301;50.832;4.080;2022-10-16T03:34:09;9.30;;;2.20;;
20283;SDS011;10301;50.832;4.080;2022-10-16T03:36:34;5.65;;;2.20;;
20283;SDS011;10301;50.832;4.080;2022-10-16T03:39:00;4.90;;;2.42;;
20283;SDS011;10301;50.832;4.080;2022-10-16T03:41:26;4.82;;;2.42;;
20283;SDS011;10301;50.832;4.080;2022-10-16T03:43:51;5.80;;;2.30;;
20283;SDS011;10301;50.832;4.080;2022-10-16T03:46:17;4.97;;;2.30;;
20283;SDS011;10301;50.832;4.080;2022-10-16T03:48:43;5.53;;;2.45;;
20283;SDS011;10301;50.832;4.080;2022-10-16T03:51:08;7.18;;;2.47;;
20283;SDS011;10301;50.832;4.080;2022-10-16T03:53:34;4.15;;;1.98;;
20283;SDS011;10301;50.832;4.080;2022-10-16T03:56:00;8.88;;;2.42;;
20283;SDS011;10301;50.832;4.080;2022-10-16T03:58:25;7.95;;;2.58;;
20283;SDS011;10301;50.832;4.080;2022-10-16T04:00:51;5.22;;;2.17;;
20283;SDS011;10301;50.832;4.080;2022-10-16T04:03:17;5.63;;;2.05;;
20283;SDS011;10301;50.832;4.080;2022-10-16T04:05:44;9.10;;;2.38;;
20283;SDS011;10301;50.832;4.080;2022-10-16T04:08:09;5.85;;;2.35;;
20283;SDS011;10301;50.832;4.080;2022-10-16T04:10:35;6.32;;;2.20;;
20283;SDS011;10301;50.832;4.080;2022-10-16T04:13:01;7.00;;;2.20;;
20283;SDS011;10301;50.832;4.080;2022-10-16T04:15:26;4.90;;;2.35;;
20283;SDS011;10301;50.832;4.080;2022-10-16T04:17:52;5.70;;;2.33;;
20283;SDS011;10301;50.832;4.080;2022-10-16T04:20:18;5.05;;;2.13;;
20283;SDS011;10301;50.832;4.080;2022-10-16T04:22:44;4.47;;;2.00;;
20283;SDS011;10301;50.832;4.080;2022-10-16T04:25:09;6.10;;;2.20;;
20283;SDS011;10301;50.832;4.080;2022-10-16T04:27:36;8.60;;;2.08;;
20283;SDS011;10301;50.832;4.080;2022-10-16T04:30:03;8.15;;;2.38;;
20283;SDS011;10301;50.832;4.080;2022-10-16T04:32:29;4.15;;;2.00;;
20283;SDS011;10301;50.832;4.080;2022-10-16T04:34:54;6.07;;;2.30;;
20283;SDS011;10301;50.832;4.080;2022-10-16T04:37:24;4.60;;;2.20;;
20283;SDS011;10301;50.832;4.080;2022-10-16T04:39:50;5.57;;;2.53;;
20283;SDS011;10301;50.832;4.080;2022-10-16T04:42:16;6.30;;;2.55;;
20283;SDS011;10301;50.832;4.080;2022-10-16T04:44:42;7.50;;;2.55;;
20283;SDS011;10301;50.832;4.080;2022-10-16T04:47:10;7.32;;;2.35;;
20283;SDS011;10301;50.832;4.080;2022-10-16T04:49:36;4.80;;;2.00;;
20283;SDS011;10301;50.832;4.080;2022-10-16T04:52:01;5.10;;;2.20;;
20283;SDS011;10301;50.832;4.080;2022-10-16T04:54:27;4.70;;;2.45;;
20283;SDS011;10301;50.832;4.080;2022-10-16T04:56:53;6.30;;;2.90;;
20283;SDS011;10301;50.832;4.080;2022-10-16T04:59:19;7.80;;;2.50;;
20283;SDS011;10301;50.832;4.080;2022-10-16T05:01:45;7.13;;;3.35;;
20283;SDS011;10301;50.832;4.080;2022-10-16T05:04:11;6.13;;;2.50;;
20283;SDS011;10301;50.832;4.080;2022-10-16T05:06:37;5.38;;;2.72;;
20283;SDS011;10301;50.832;4.080;2022-10-16T05:09:04;6.10;;;2.65;;
20283;SDS011;10301;50.832;4.080;2022-10-16T05:11:30;6.70;;;2.50;;
20283;SDS011;10301;50.832;4.080;2022-10-16T05:13:56;7.75;;;2.60;;
20283;SDS011;10301;50.832;4.080;2022-10-16T05:16:22;6.07;;;2.67;;
20283;SDS011;10301;50.832;4.080;2022-10-16T05:18:48;9.00;;;2.65;;
20283;SDS011;10301;50.832;4.080;2022-10-16T05:21:13;6.18;;;2.60;;
20283;SDS011;10301;50.832;4.080;2022-10-16T05:23:39;6.82;;;2.90;;
20283;SDS011;10301;50.832;4.080;2022-10-16T05:26:04;6.53;;;2.67;;
20283;SDS011;10301;50.832;4.080;2022-10-16T05:28:30;6.78;;;2.60;;
20283;SDS011;10301;50.832;4.080;2022-10-16T05:30:56;11.05;;;2.88;;
20283;SDS011;10301;50.832;4.080;2022-10-16T05:33:23;6.63;;;2.20;;
20283;SDS011;10301;50.832;4.080;2022-10-16T05:35:51;4.70;;;2.30;;
20283;SDS011;10301;50.832;4.080;2022-10-16T05:38:17;8.52;;;2.80;;
20283;SDS011;10301;50.832;4.080;2022-10-16T05:40:44;6.93;;;2.47;;
20283;SDS011;10301;50.832;4.080;2022-10-16T05:43:16;7.20;;;2.47;;
20283;SDS011;10301;50.832;4.080;2022-10-16T05:45:42;6.10;;;2.60;;
20283;SDS011;10301;50.832;4.080;2022-10-16T05:48:08;7.68;;;2.47;;
20283;SDS011;10301;50.832;4.080;2022-10-16T05:50:33;6.40;;;3.10;;
20283;SDS011;10301;50.832;4.080;2022-10-16T05:52:59;6.70;;;2.70;;
20283;SDS011;10301;50.832;4.080;2022-10-16T05:55:24;9.05;;;3.40;;
20283;SDS011;10301;50.832;4.080;2022-10-16T05:57:50;7.90;;;3.38;;
20283;SDS011;10301;50.832;4.080;2022-10-16T06:00:18;7.65;;;3.25;;
20283;SDS011;10301;50.832;4.080;2022-10-16T06:02:44;6.50;;;2.97;;
20283;SDS011;10301;50.832;4.080;2022-10-16T06:05:09;6.25;;;3.30;;
20283;SDS011;10301;50.832;4.080;2022-10-16T06:07:35;8.20;;;2.40;;
20283;SDS011;10301;50.832;4.080;2022-10-16T06:10:02;7.32;;;3.20;;
20283;SDS011;10301;50.832;4.080;2022-10-16T06:12:29;5.28;;;2.55;;
20283;SDS011;10301;50.832;4.080;2022-10-16T06:14:55;8.77;;;2.67;;
20283;SDS011;10301;50.832;4.080;2022-10-16T06:17:20;10.00;;;3.33;;
20283;SDS011;10301;50.832;4.080;2022-10-16T06:19:46;7.85;;;3.30;;
20283;SDS011;10301;50.832;4.080;2022-10-16T06:22:11;7.45;;;3.03;;
20283;SDS011;10301;50.832;4.080;2022-10-16T06:24:37;9.18;;;3.17;;
20283;SDS011;10301;50.832;4.080;2022-10-16T06:27:03;6.63;;;2.65;;
20283;SDS011;10301;50.832;4.080;2022-10-16T06:29:29;8.00;;;2.92;;
20283;SDS011;10301;50.832;4.080;2022-10-16T06:31:55;7.97;;;2.65;;
20283;SDS011;10301;50.832;4.080;2022-10-16T06:34:21;5.93;;;2.40;;
20283;SDS011;10301;50.832;4.080;2022-10-16T06:36:46;5.20;;;2.40;;
20283;SDS011;10301;50.832;4.080;2022-10-16T06:39:12;5.75;;;2.80;;
20283;SDS011;10301;50.832;4.080;2022-10-16T06:41:38;6.85;;;2.63;;
20283;SDS011;10301;50.832;4.080;2022-10-16T06:44:06;5.35;;;2.70;;
20283;SDS011;10301;50.832;4.080;2022-10-16T06:46:33;8.30;;;2.88;;
20283;SDS011;10301;50.832;4.080;2022-10-16T06:48:58;7.68;;;2.75;;
20283;SDS011;10301;50.832;4.080;2022-10-16T06:51:24;5.22;;;2.47;;
20283;SDS011;10301;50.832;4.080;2022-10-16T06:53:51;5.28;;;2.40;;
20283;SDS011;10301;50.832;4.080;2022-10-16T06:56:22;7.63;;;2.53;;
20283;SDS011;10301;50.832;4.080;2022-10-16T06:58:50;6.75;;;2.60;;
20283;SDS011;10301;50.832;4.080;2022-10-16T07:01:20;5.55;;;2.15;;
20283;SDS011;10301;50.832;4.080;2022-10-16T07:03:48;7.90;;;2.90;;
20283;SDS011;10301;50.832;4.080;2022-10-16T07:06:15;8.57;;;3.42;;
20283;SDS011;10301;50.832;4.080;2022-10-16T07:08:45;5.70;;;3.28;;
20283;SDS011;10301;50.832;4.080;2022-10-16T07:11:16;7.15;;;3.10;;
20283;SDS011;10301;50.832;4.080;2022-10-16T07:13:43;8.52;;;3.03;;
20283;SDS011;10301;50.832;4.080;2022-10-16T07:16:11;6.97;;;3.05;;
20283;SDS011;10301;50.832;4.080;2022-10-16T07:18:41;8.65;;;2.80;;
20283;SDS011;10301;50.832;4.080;2022-10-16T07:21:13;6.70;;;3.05;;
20283;SDS011;10301;50.832;4.080;2022-10-16T07:23:41;9.15;;;2.55;;
20283;SDS011;10301;50.832;4.080;2022-10-16T07:26:07;10.57;;;4.05;;
20283;SDS011;10301;50.832;4.080;2022-10-16T07:28:33;6.88;;;3.28;;
20283;SDS011;10301;50.832;4.080;2022-10-16T07:31:00;6.90;;;3.15;;
20283;SDS011;10301;50.832;4.080;2022-10-16T07:33:30;8.25;;;3.40;;
20283;SDS011;10301;50.832;4.080;2022-10-16T07:35:57;5.88;;;2.72;;
20283;SDS011;10301;50.832;4.080;2022-10-16T07:38:23;5.93;;;2.90;;
20283;SDS011;10301;50.832;4.080;2022-10-16T07:40:55;7.30;;;2.80;;
20283;SDS011;10301;50.832;4.080;2022-10-16T07:43:25;8.00;;;3.47;;
20283;SDS011;10301;50.832;4.080;2022-10-16T07:45:52;10.55;;;3.20;;
20283;SDS011;10301;50.832;4.080;2022-10-16T07:48:18;11.05;;;3.63;;
20283;SDS011;10301;50.832;4.080;2022-10-16T07:50:44;7.53;;;2.55;;
20283;SDS011;10301;50.832;4.080;2022-10-16T07:53:10;9.40;;;2.60;;
20283;SDS011;10301;50.832;4.080;2022-10-16T07:55:37;12.23;;;2.92;;
20283;SDS011;10301;50.832;4.080;2022-10-16T07:58:03;8.70;;;2.42;;
20283;SDS011;10301;50.832;4.080;2022-10-16T08:00:29;9.43;;;2.53;;
20283;SDS011;10301;50.832;4.080;2022-10-16T08:02:56;5.43;;;2.78;;
20283;SDS011;10301;50.832;4.080;2022-10-16T08:05:25;7.13;;;2.45;;
20283;SDS011;10301;50.832;4.080;2022-10-16T08:07:55;6.28;;;2.55;;
20283;SDS011;10301;50.832;4.080;2022-10-16T08:10:21;6.28;;;2.33;;
20283;SDS011;10301;50.832;4.080;2022-10-16T08:12:49;10.52;;;2.60;;
20283;SDS011;10301;50.832;4.080;2022-10-16T08:15:15;7.35;;;2.30;;
20283;SDS011;10301;50.832;4.080;2022-10-16T08:17:40;8.73;;;2.30;;
20283;SDS011;10301;50.832;4.080;2022-10-16T08:20:06;6.03;;;2.20;;
20283;SDS011;10301;50.832;4.080;2022-10-16T08:22:32;7.70;;;2.20;;
20283;SDS011;10301;50.832;4.080;2022-10-16T08:24:58;7.20;;;2.40;;
20283;SDS011;10301;50.832;4.080;2022-10-16T08:27:24;6.82;;;2.20;;
20283;SDS011;10301;50.832;4.080;2022-10-16T08:29:49;8.75;;;2.20;;
20283;SDS011;10301;50.832;4.080;2022-10-16T08:32:15;8.70;;;2.10;;
20283;SDS011;10301;50.832;4.080;2022-10-16T08:34:41;5.75;;;2.20;;
20283;SDS011;10301;50.832;4.080;2022-10-16T08:37:06;6.88;;;2.05;;
20283;SDS011;10301;50.832;4.080;2022-10-16T08:39:36;6.25;;;1.80;;
20283;SDS011;10301;50.832;4.080;2022-10-16T08:47:22;6.80;;;1.85;;
20283;SDS011;10301;50.832;4.080;2022-10-16T08:49:55;7.70;;;1.80;;
20283;SDS011;10301;50.832;4.080;2022-10-16T08:52:27;6.28;;;2.15;;
20283;SDS011;10301;50.832;4.080;2022-10-16T08:54:55;6.75;;;1.92;;
20283;SDS011;10301;50.832;4.080;2022-10-16T08:57:22;5.22;;;1.75;;
20283;SDS011;10301;50.832;4.080;2022-10-16T08:59:51;5.68;;;1.98;;
20283;SDS011;10301;50.832;4.080;2022-10-16T09:02:36;5.68;;;1.40;;
20283;SDS011;10301;50.832;4.080;2022-10-16T09:16:36;6.88;;;1.50;;
20283;SDS011;10301;50.832;4.080;2022-10-16T09:19:15;5.70;;;1.52;;
20283;SDS011;10301;50.832;4.080;2022-10-16T09:21:48;6.35;;;1.55;;
20283;SDS011;10301;50.832;4.080;2022-10-16T09:24:17;6.55;;;1.60;;
20283;SDS011;10301;50.832;4.080;2022-10-16T09:26:45;9.27;;;1.67;;
20283;SDS011;10301;50.832;4.080;2022-10-16T09:29:12;6.75;;;1.90;;
20283;SDS011;10301;50.832;4.080;2022-10-16T09:31:45;5.22;;;1.50;;
20283;SDS011;10301;50.832;4.080;2022-10-16T09:34:17;10.95;;;2.00;;
20283;SDS011;10301;50.832;4.080;2022-10-16T09:36:55;6.57;;;1.92;;
20283;SDS011;10301;50.832;4.080;2022-10-16T09:39:23;8.63;;;1.95;;
20283;SDS011;10301;50.832;4.080;2022-10-16T09:41:50;5.95;;;1.33;;
20283;SDS011;10301;50.832;4.080;2022-10-16T09:44:21;5.40;;;1.42;;
20283;SDS011;10301;50.832;4.080;2022-10-16T09:46:48;6.20;;;1.65;;
20283;SDS011;10301;50.832;4.080;2022-10-16T09:49:21;8.65;;;1.73;;
20283;SDS011;10301;50.832;4.080;2022-10-16T09:51:48;7.30;;;1.90;;
20283;SDS011;10301;50.832;4.080;2022-10-16T09:54:16;6.60;;;1.45;;
20283;SDS011;10301;50.832;4.080;2022-10-16T09:56:43;9.70;;;1.85;;
20283;SDS011;10301;50.832;4.080;2022-10-16T09:59:15;7.88;;;1.83;;
20283;SDS011;10301;50.832;4.080;2022-10-16T10:01:43;6.93;;;1.50;;
20283;SDS011;10301;50.832;4.080;2022-10-16T10:04:09;7.22;;;1.50;;
20283;SDS011;10301;50.832;4.080;2022-10-16T10:09:15;4.72;;;1.40;;
20283;SDS011;10301;50.832;4.080;2022-10-16T10:14:38;6.85;;;1.45;;
20283;SDS011;10301;50.832;4.080;2022-10-16T10:17:11;9.63;;;2.67;;
20283;SDS011;10301;50.832;4.080;2022-10-16T10:19:41;5.40;;;1.45;;
20283;SDS011;10301;50.832;4.080;2022-10-16T10:22:18;7.10;;;1.27;;
20283;SDS011;10301;50.832;4.080;2022-10-16T10:33:41;5.88;;;1.67;;
20283;SDS011;10301;50.832;4.080;2022-10-16T10:36:38;7.35;;;1.20;;
20283;SDS011;10301;50.832;4.080;2022-10-16T10:39:08;7.30;;;1.55;;
20283;SDS011;10301;50.832;4.080;2022-10-16T10:41:50;6.78;;;1.15;;
20283;SDS011;10301;50.832;4.080;2022-10-16T10:47:30;7.85;;;1.27;;
20283;SDS011;10301;50.832;4.080;2022-10-16T10:55:33;6.95;;;1.30;;
20283;SDS011;10301;50.832;4.080;2022-10-16T11:01:09;5.70;;;1.20;;
20283;SDS011;10301;50.832;4.080;2022-10-16T11:06:40;6.63;;;1.42;;
20283;SDS011;10301;50.832;4.080;2022-10-16T11:09:20;6.13;;;2.10;;
20283;SDS011;10301;50.832;4.080;2022-10-16T11:14:28;7.55;;;1.88;;
20283;SDS011;10301;50.832;4.080;2022-10-16T11:17:12;5.45;;;1.38;;
20283;SDS011;10301;50.832;4.080;2022-10-16T11:19:45;7.18;;;1.70;;
20283;SDS011;10301;50.832;4.080;2022-10-16T11:22:22;4.75;;;1.20;;
20283;SDS011;10301;50.832;4.080;2022-10-16T11:25:27;5.18;;;1.23;;
20283;SDS011;10301;50.832;4.080;2022-10-16T11:39:34;5.53;;;1.10;;
20283;SDS011;10301;50.832;4.080;2022-10-16T11:42:11;4.18;;;1.25;;
20283;SDS011;10301;50.832;4.080;2022-10-16T11:47:33;5.53;;;1.20;;
20283;SDS011;10301;50.832;4.080;2022-10-16T11:53:03;5.45;;;1.70;;
20283;SDS011;10301;50.832;4.080;2022-10-16T11:55:41;6.50;;;1.27;;
20283;SDS011;10301;50.832;4.080;2022-10-16T12:00:43;4.95;;;1.40;;
20283;SDS011;10301;50.832;4.080;2022-10-16T12:06:12;4.88;;;1.20;;
20283;SDS011;10301;50.832;4.080;2022-10-16T12:09:00;3.78;;;0.90;;
20283;SDS011;10301;50.832;4.080;2022-10-16T12:11:34;4.80;;;1.20;;
20283;SDS011;10301;50.832;4.080;2022-10-16T12:16:50;4.35;;;1.20;;
20283;SDS011;10301;50.832;4.080;2022-10-16T12:19:21;6.43;;;1.30;;
20283;SDS011;10301;50.832;4.080;2022-10-16T12:21:48;5.63;;;1.25;;
20283;SDS011;10301;50.832;4.080;2022-10-16T12:24:31;3.92;;;1.10;;
20283;SDS011;10301;50.832;4.080;2022-10-16T12:27:00;5.43;;;1.70;;
20283;SDS011;10301;50.832;4.080;2022-10-16T12:29:32;7.63;;;1.98;;
20283;SDS011;10301;50.832;4.080;2022-10-16T12:31:58;4.57;;;0.98;;
20283;SDS011;10301;50.832;4.080;2022-10-16T12:34:29;5.63;;;1.50;;
20283;SDS011;10301;50.832;4.080;2022-10-16T12:37:12;5.78;;;1.40;;
20283;SDS011;10301;50.832;4.080;2022-10-16T12:39:59;6.18;;;1.10;;
20283;SDS011;10301;50.832;4.080;2022-10-16T12:42:38;3.47;;;1.13;;
20283;SDS011;10301;50.832;4.080;2022-10-16T12:47:51;3.72;;;1.10;;
20283;SDS011;10301;50.832;4.080;2022-10-16T12:50:29;4.97;;;1.00;;
20283;SDS011;10301;50.832;4.080;2022-10-16T12:52:56;4.97;;;0.90;;
20283;SDS011;10301;50.832;4.080;2022-10-16T12:55:23;3.97;;;1.20;;
20283;SDS011;10301;50.832;4.080;2022-10-16T12:57:57;2.63;;;1.00;;
20283;SDS011;10301;50.832;4.080;2022-10-16T13:01:01;5.97;;;1.30;;
20283;SDS011;10301;50.832;4.080;2022-10-16T13:03:32;5.00;;;1.20;;
20283;SDS011;10301;50.832;4.080;2022-10-16T13:09:07;5.20;;;1.00;;
20283;SDS011;10301;50.832;4.080;2022-10-16T13:17:02;4.65;;;1.00;;
20283;SDS011;10301;50.832;4.080;2022-10-16T13:27:56;8.07;;;0.85;;
20283;SDS011;10301;50.832;4.080;2022-10-16T13:30:29;3.88;;;0.95;;
20283;SDS011;10301;50.832;4.080;2022-10-16T13:35:49;5.70;;;1.15;;
20283;SDS011;10301;50.832;4.080;2022-10-16T13:38:20;5.93;;;1.20;;
20283;SDS011;10301;50.832;4.080;2022-10-16T13:40:48;4.35;;;0.90;;
20283;SDS011;10301;50.832;4.080;2022-10-16T13:43:18;4.32;;;1.08;;
20283;SDS011;10301;50.832;4.080;2022-10-16T13:45:58;6.18;;;1.15;;
20283;SDS011;10301;50.832;4.080;2022-10-16T13:48:25;3.55;;;1.30;;
20283;SDS011;10301;50.832;4.080;2022-10-16T13:51:01;3.05;;;0.95;;
20283;SDS011;10301;50.832;4.080;2022-10-16T13:53:37;5.40;;;1.02;;
20283;SDS011;10301;50.832;4.080;2022-10-16T13:56:04;7.15;;;1.15;;
20283;SDS011;10301;50.832;4.080;2022-10-16T13:58:31;6.50;;;1.92;;
20283;SDS011;10301;50.832;4.080;2022-10-16T14:00:58;7.78;;;1.85;;
20283;SDS011;10301;50.832;4.080;2022-10-16T14:03:39;5.18;;;1.95;;
20283;SDS011;10301;50.832;4.080;2022-10-16T14:06:06;5.95;;;1.73;;
20283;SDS011;10301;50.832;4.080;2022-10-16T14:08:40;3.88;;;1.13;;
20283;SDS011;10301;50.832;4.080;2022-10-16T14:11:09;4.07;;;1.20;;
20283;SDS011;10301;50.832;4.080;2022-10-16T14:13:39;4.95;;;1.10;;
20283;SDS011;10301;50.832;4.080;2022-10-16T14:16:10;3.58;;;0.90;;
20283;SDS011;10301;50.832;4.080;2022-10-16T14:18:40;5.72;;;1.40;;
20283;SDS011;10301;50.832;4.080;2022-10-16T14:21:12;3.95;;;1.10;;
20283;SDS011;10301;50.832;4.080;2022-10-16T14:23:40;5.00;;;0.95;;
20283;SDS011;10301;50.832;4.080;2022-10-16T14:28:35;6.07;;;2.63;;
20283;SDS011;10301;50.832;4.080;2022-10-16T14:31:03;8.45;;;1.75;;
20283;SDS011;10301;50.832;4.080;2022-10-16T14:33:51;5.97;;;1.60;;
20283;SDS011;10301;50.832;4.080;2022-10-16T14:36:16;6.68;;;1.20;;
20283;SDS011;10301;50.832;4.080;2022-10-16T14:41:24;6.50;;;1.67;;
20283;SDS011;10301;50.832;4.080;2022-10-16T14:43:50;9.77;;;1.30;;
20283;SDS011;10301;50.832;4.080;2022-10-16T14:46:22;5.18;;;1.70;;
20283;SDS011;10301;50.832;4.080;2022-10-16T14:51:36;6.93;;;1.20;;
20283;SDS011;10301;50.832;4.080;2022-10-16T14:54:02;4.82;;;0.90;;
20283;SDS011;10301;50.832;4.080;2022-10-16T14:56:48;3.22;;;0.93;;
20283;SDS011;10301;50.832;4.080;2022-10-16T14:59:21;2.83;;;0.85;;
20283;SDS011;10301;50.832;4.080;2022-10-16T15:01:57;6.10;;;1.10;;
20283;SDS011;10301;50.832;4.080;2022-10-16T15:04:23;5.22;;;1.50;;
20283;SDS011;10301;50.832;4.080;2022-10-16T15:06:48;6.78;;;1.25;;
20283;SDS011;10301;50.832;4.080;2022-10-16T15:09:14;5.43;;;1.13;;
20283;SDS011;10301;50.832;4.080;2022-10-16T15:11:40;3.38;;;1.00;;
20283;SDS011;10301;50.832;4.080;2022-10-16T15:14:08;4.20;;;1.08;;
20283;SDS011;10301;50.832;4.080;2022-10-16T15:16:37;6.72;;;1.17;;
20283;SDS011;10301;50.832;4.080;2022-10-16T15:19:03;3.13;;;0.77;;
20283;SDS011;10301;50.832;4.080;2022-10-16T15:21:30;5.35;;;1.17;;
20283;SDS011;10301;50.832;4.080;2022-10-16T15:23:57;3.85;;;1.27;;
20283;SDS011;10301;50.832;4.080;2022-10-16T15:26:27;5.95;;;1.20;;
20283;SDS011;10301;50.832;4.080;2022-10-16T15:28:54;5.10;;;1.10;;
20283;SDS011;10301;50.832;4.080;2022-10-16T15:31:20;5.30;;;0.88;;
20283;SDS011;10301;50.832;4.080;2022-10-16T15:33:48;6.88;;;1.60;;
20283;SDS011;10301;50.832;4.080;2022-10-16T15:36:23;5.85;;;1.35;;
20283;SDS011;10301;50.832;4.080;2022-10-16T15:38:50;4.90;;;1.25;;
20283;SDS011;10301;50.832;4.080;2022-10-16T15:41:16;7.93;;;1.90;;
20283;SDS011;10301;50.832;4.080;2022-10-16T15:43:42;7.32;;;1.50;;
20283;SDS011;10301;50.832;4.080;2022-10-16T15:46:08;6.93;;;1.25;;
20283;SDS011;10301;50.832;4.080;2022-10-16T15:48:36;4.80;;;1.23;;
20283;SDS011;10301;50.832;4.080;2022-10-16T15:51:06;5.90;;;2.00;;
20283;SDS011;10301;50.832;4.080;2022-10-16T15:53:32;9.13;;;2.42;;
20283;SDS011;10301;50.832;4.080;2022-10-16T15:56:01;6.75;;;2.00;;
20283;SDS011;10301;50.832;4.080;2022-10-16T15:58:30;8.07;;;2.08;;
20283;SDS011;10301;50.832;4.080;2022-10-16T16:00:56;7.30;;;2.03;;
20283;SDS011;10301;50.832;4.080;2022-10-16T16:03:23;6.05;;;1.65;;
20283;SDS011;10301;50.832;4.080;2022-10-16T16:05:49;7.32;;;2.00;;
20283;SDS011;10301;50.832;4.080;2022-10-16T16:08:14;8.35;;;2.63;;
20283;SDS011;10301;50.832;4.080;2022-10-16T16:10:41;6.20;;;2.20;;
20283;SDS011;10301;50.832;4.080;2022-10-16T16:13:07;6.57;;;2.35;;
20283;SDS011;10301;50.832;4.080;2022-10-16T16:15:32;8.35;;;2.40;;
20283;SDS011;10301;50.832;4.080;2022-10-16T16:17:58;7.30;;;1.98;;
20283;SDS011;10301;50.832;4.080;2022-10-16T16:20:25;5.78;;;2.22;;
20283;SDS011;10301;50.832;4.080;2022-10-16T16:22:50;6.43;;;1.88;;
20283;SDS011;10301;50.832;4.080;2022-10-16T16:25:16;5.32;;;1.90;;
20283;SDS011;10301;50.832;4.080;2022-10-16T16:27:42;6.40;;;1.60;;
20283;SDS011;10301;50.832;4.080;2022-10-16T16:30:09;7.00;;;1.92;;
20283;SDS011;10301;50.832;4.080;2022-10-16T16:32:39;6.00;;;2.15;;
20283;SDS011;10301;50.832;4.080;2022-10-16T16:35:04;5.57;;;1.70;;
20283;SDS011;10301;50.832;4.080;2022-10-16T16:37:30;4.72;;;1.92;;
20283;SDS011;10301;50.832;4.080;2022-10-16T16:39:56;8.18;;;2.00;;
20283;SDS011;10301;50.832;4.080;2022-10-16T16:42:25;5.32;;;1.90;;
20283;SDS011;10301;50.832;4.080;2022-10-16T16:44:51;9.30;;;1.80;;
20283;SDS011;10301;50.832;4.080;2022-10-16T16:47:17;6.90;;;2.03;;
20283;SDS011;10301;50.832;4.080;2022-10-16T16:49:43;6.10;;;2.38;;
20283;SDS011;10301;50.832;4.080;2022-10-16T16:52:09;9.70;;;2.90;;
20283;SDS011;10301;50.832;4.080;2022-10-16T16:54:34;5.55;;;2.20;;
20283;SDS011;10301;50.832;4.080;2022-10-16T16:57:00;6.05;;;2.40;;
20283;SDS011;10301;50.832;4.080;2022-10-16T16:59:26;5.40;;;2.33;;
20283;SDS011;10301;50.832;4.080;2022-10-16T17:01:54;5.57;;;2.10;;
20283;SDS011;10301;50.832;4.080;2022-10-16T17:04:20;8.05;;;2.30;;